createdAt,value
2023-07-19T00:02:14.439Z,3.93
2023-07-19T00:04:42.625Z,2.60
2023-07-19T00:07:13.202Z,3.20
2023-07-19T00:09:41.290Z,2.90
2023-07-19T00:12:10.089Z,3.00
2023-07-19T00:14:38.331Z,3.57
2023-07-19T00:17:06.627Z,4.00
2023-07-19T00:19:34.714Z,3.57
2023-07-19T00:22:03.077Z,3.10
2023-07-19T00:24:32.572Z,3.30
2023-07-19T00:27:00.625Z,3.50
2023-07-19T00:29:28.732Z,3.53
2023-07-19T00:31:56.850Z,2.97
2023-07-19T00:34:24.988Z,2.73
2023-07-19T00:36:53.054Z,2.87
2023-07-19T00:39:21.140Z,3.13
2023-07-19T00:41:50.676Z,3.40
2023-07-19T00:44:18.980Z,2.60
2023-07-19T00:46:47.707Z,3.77
2023-07-19T00:49:16.233Z,2.83
2023-07-19T00:51:45.080Z,3.60
2023-07-19T00:54:13.338Z,2.97
2023-07-19T00:56:44.935Z,3.23
2023-07-19T00:59:15.771Z,2.80
2023-07-19T01:01:45.756Z,3.50
2023-07-19T01:04:14.572Z,3.20
2023-07-19T01:06:44.646Z,3.07
2023-07-19T01:09:13.246Z,3.23
2023-07-19T01:11:42.370Z,3.33
2023-07-19T01:14:10.556Z,3.13
2023-07-19T01:16:40.362Z,3.30
2023-07-19T01:19:10.751Z,3.70
2023-07-19T01:21:38.885Z,3.50
2023-07-19T01:24:09.047Z,4.07
2023-07-19T01:26:37.636Z,3.70
2023-07-19T01:29:05.899Z,4.03
2023-07-19T01:31:34.179Z,3.60
2023-07-19T01:34:02.828Z,3.00
2023-07-19T01:36:31.132Z,3.50
2023-07-19T01:38:59.443Z,3.60
2023-07-19T01:41:29.063Z,3.30
2023-07-19T01:43:57.692Z,2.97
2023-07-19T01:46:25.875Z,3.50
2023-07-19T01:48:54.424Z,4.33
2023-07-19T01:51:22.781Z,3.30
2023-07-19T01:53:51.155Z,3.90
2023-07-19T01:56:19.616Z,3.27
2023-07-19T01:58:49.214Z,3.47
2023-07-19T02:01:18.124Z,3.20
2023-07-19T02:03:46.400Z,3.50
2023-07-19T02:06:14.897Z,3.20
2023-07-19T02:08:43.214Z,3.43
2023-07-19T02:11:14.952Z,2.97
2023-07-19T02:13:43.477Z,3.80
2023-07-19T02:16:13.515Z,4.33
2023-07-19T02:18:42.120Z,3.80
2023-07-19T02:21:10.327Z,3.50
2023-07-19T02:23:38.600Z,3.00
2023-07-19T02:26:06.765Z,3.53
2023-07-19T02:28:35.011Z,3.40
2023-07-19T02:31:04.581Z,3.77
2023-07-19T02:33:34.416Z,3.10
2023-07-19T02:36:02.802Z,2.83
2023-07-19T02:38:31.059Z,3.20
2023-07-19T02:41:03.905Z,3.30
2023-07-19T02:43:32.422Z,3.60
2023-07-19T02:46:00.698Z,3.67
2023-07-19T02:48:28.859Z,3.13
2023-07-19T02:50:59.656Z,2.70
2023-07-19T02:53:28.029Z,3.50
2023-07-19T02:55:56.132Z,3.27
2023-07-19T02:58:24.318Z,3.13
2023-07-19T03:00:55.537Z,3.00
2023-07-19T03:03:24.128Z,2.60
2023-07-19T03:05:52.239Z,2.90
2023-07-19T03:08:21.773Z,3.23
2023-07-19T03:10:54.764Z,3.00
2023-07-19T03:13:22.980Z,3.30
2023-07-19T03:15:51.336Z,3.10
2023-07-19T03:18:19.443Z,2.80
2023-07-19T03:20:47.559Z,2.57
2023-07-19T03:23:15.673Z,3.83
2023-07-19T03:25:45.820Z,3.30
2023-07-19T03:28:13.929Z,3.30
2023-07-19T03:30:42.092Z,3.53
2023-07-19T03:33:10.288Z,2.90
2023-07-19T03:35:38.444Z,3.83
2023-07-19T03:38:06.598Z,3.00
2023-07-19T03:40:34.712Z,3.70
2023-07-19T03:43:04.193Z,3.40
2023-07-19T03:45:32.294Z,3.03
2023-07-19T03:48:00.355Z,3.20
2023-07-19T03:50:28.630Z,2.97
2023-07-19T03:52:56.703Z,2.80
2023-07-19T03:55:25.021Z,4.33
2023-07-19T03:57:53.158Z,8.77
2023-07-19T04:00:23.095Z,6.00
2023-07-19T04:02:51.710Z,6.03
2023-07-19T04:05:19.951Z,7.50
2023-07-19T04:07:48.469Z,6.83
2023-07-19T04:10:16.628Z,7.27
2023-07-19T04:12:44.792Z,5.87
2023-07-19T04:15:12.977Z,6.90
2023-07-19T04:17:42.697Z,5.57
2023-07-19T04:20:12.196Z,6.47
2023-07-19T04:22:40.402Z,5.50
2023-07-19T04:25:09.719Z,6.00
2023-07-19T04:27:37.936Z,7.27
2023-07-19T04:30:07.289Z,7.30
2023-07-19T04:32:35.507Z,6.40
2023-07-19T04:35:05.580Z,7.20
2023-07-19T04:37:33.848Z,6.50
2023-07-19T04:40:02.650Z,5.87
2023-07-19T04:42:30.805Z,7.17
2023-07-19T04:44:58.995Z,6.10
2023-07-19T04:47:27.199Z,6.23
2023-07-19T04:49:55.341Z,5.90
2023-07-19T04:52:24.877Z,7.20
2023-07-19T04:54:53.178Z,7.07
2023-07-19T04:57:21.227Z,6.43
2023-07-19T04:59:49.396Z,6.37
2023-07-19T05:02:18.027Z,6.13
2023-07-19T05:04:46.223Z,6.07
2023-07-19T05:07:16.068Z,6.03
2023-07-19T05:09:45.680Z,5.87
2023-07-19T05:12:13.767Z,5.60
2023-07-19T05:14:41.976Z,5.63
2023-07-19T05:17:10.207Z,4.90
2023-07-19T05:19:38.237Z,6.60
2023-07-19T05:22:06.811Z,7.10
2023-07-19T05:24:35.198Z,6.87
2023-07-19T05:27:04.927Z,6.70
2023-07-19T05:29:33.007Z,6.40
2023-07-19T05:32:01.117Z,5.60
2023-07-19T05:34:29.623Z,6.87
2023-07-19T05:36:58.481Z,6.03
2023-07-19T05:39:26.868Z,6.93
2023-07-19T05:41:54.820Z,5.80
2023-07-19T05:44:24.230Z,6.40
2023-07-19T05:46:53.607Z,6.27
2023-07-19T05:49:21.770Z,7.80
2023-07-19T05:51:49.748Z,6.70
2023-07-19T05:54:17.754Z,5.23
2023-07-19T05:56:46.089Z,6.80
2023-07-19T05:59:14.610Z,5.83
2023-07-19T06:01:44.527Z,5.83
2023-07-19T06:04:12.864Z,6.20
2023-07-19T06:06:40.923Z,7.23
2023-07-19T06:09:09.774Z,6.13
2023-07-19T06:11:37.826Z,6.87
2023-07-19T06:14:05.874Z,6.87
2023-07-19T06:16:33.948Z,8.30
2023-07-19T06:19:03.905Z,6.73
2023-07-19T06:21:32.903Z,6.47
2023-07-19T06:24:02.491Z,7.37
2023-07-19T06:26:30.667Z,8.33
2023-07-19T06:28:58.849Z,7.53
2023-07-19T06:31:26.899Z,6.17
2023-07-19T06:33:55.006Z,5.90
2023-07-19T06:36:25.226Z,6.07
2023-07-19T06:38:53.189Z,6.80
2023-07-19T06:41:21.700Z,6.30
2023-07-19T06:43:50.190Z,5.60
2023-07-19T06:46:18.233Z,6.27
2023-07-19T06:48:46.285Z,6.40
2023-07-19T06:51:14.733Z,5.67
2023-07-19T06:53:44.087Z,5.87
2023-07-19T06:56:12.136Z,5.97
2023-07-19T06:58:40.505Z,6.70
2023-07-19T07:01:08.666Z,5.53
2023-07-19T07:03:37.194Z,6.37
2023-07-19T07:06:05.565Z,5.70
2023-07-19T07:08:34.689Z,6.30
2023-07-19T07:11:05.437Z,6.37
2023-07-19T07:13:33.776Z,5.60
2023-07-19T07:16:01.816Z,5.70
2023-07-19T07:18:29.976Z,5.53
2023-07-19T07:20:58.382Z,5.87
2023-07-19T07:23:26.613Z,7.20
2023-07-19T07:25:54.817Z,5.90
2023-07-19T07:28:24.563Z,5.00
2023-07-19T07:30:52.659Z,6.10
2023-07-19T07:33:21.321Z,5.80
2023-07-19T07:35:49.264Z,5.73
2023-07-19T07:38:17.292Z,6.03
2023-07-19T07:40:45.367Z,6.20
2023-07-19T07:43:13.596Z,4.70
2023-07-19T07:45:43.065Z,6.33
2023-07-19T07:48:11.374Z,5.70
2023-07-19T07:50:39.464Z,5.23
2023-07-19T07:53:13.021Z,5.23
2023-07-19T07:55:43.101Z,5.50
2023-07-19T07:58:11.742Z,5.50
2023-07-19T08:00:40.271Z,5.50
2023-07-19T08:03:10.159Z,5.40
2023-07-19T08:05:39.099Z,5.10
2023-07-19T08:08:07.655Z,4.67
2023-07-19T08:10:38.096Z,5.43
2023-07-19T08:13:06.580Z,6.10
2023-07-19T08:15:34.955Z,6.07
2023-07-19T08:18:03.146Z,6.20
2023-07-19T08:20:32.756Z,5.60
2023-07-19T08:23:03.302Z,4.93
2023-07-19T08:25:31.766Z,5.17
2023-07-19T08:27:59.912Z,5.07
2023-07-19T08:30:29.854Z,4.80
2023-07-19T08:33:00.364Z,5.30
2023-07-19T08:35:28.497Z,6.77
2023-07-19T08:37:57.864Z,5.47
2023-07-19T08:40:26.676Z,4.97
2023-07-19T08:42:54.654Z,5.50
2023-07-19T08:45:26.089Z,5.30
2023-07-19T08:47:54.218Z,5.10
2023-07-19T08:50:23.971Z,5.67
2023-07-19T08:52:52.311Z,6.40
2023-07-19T08:55:22.231Z,6.10
2023-07-19T08:57:50.301Z,6.80
2023-07-19T09:00:19.638Z,5.40
2023-07-19T09:02:48.152Z,5.90
2023-07-19T09:05:16.505Z,5.90
2023-07-19T09:07:48.966Z,5.07
2023-07-19T09:10:19.681Z,5.20
2023-07-19T09:12:49.492Z,4.83
2023-07-19T09:15:17.596Z,5.03
2023-07-19T09:17:49.024Z,6.13
2023-07-19T09:20:19.323Z,5.30
2023-07-19T09:22:47.671Z,6.17
2023-07-19T09:25:16.840Z,5.20
2023-07-19T09:27:45.665Z,5.90
2023-07-19T09:30:16.378Z,6.10
2023-07-19T09:32:44.753Z,5.27
2023-07-19T09:35:13.212Z,4.63
2023-07-19T09:37:42.114Z,6.95
2023-07-19T09:40:11.311Z,4.03
2023-07-19T09:42:42.836Z,5.20
2023-07-19T09:45:12.933Z,5.78
2023-07-19T09:47:43.676Z,5.97
2023-07-19T09:50:13.795Z,4.90
2023-07-19T09:52:44.206Z,5.90
2023-07-19T09:55:13.438Z,5.70
2023-07-19T09:57:45.872Z,5.10
2023-07-19T10:00:15.125Z,5.23
2023-07-19T10:02:44.751Z,5.30
2023-07-19T10:05:13.586Z,4.30
2023-07-19T10:07:50.778Z,5.10
2023-07-19T10:10:21.880Z,4.77
2023-07-19T10:12:51.539Z,4.70
2023-07-19T10:15:22.991Z,6.90
2023-07-19T10:18:01.300Z,4.93
2023-07-19T10:20:34.613Z,6.20
2023-07-19T10:25:49.759Z,4.60
2023-07-19T10:28:31.462Z,5.30
2023-07-19T10:31:10.149Z,5.50
2023-07-19T10:33:47.296Z,5.23
2023-07-19T10:36:15.636Z,5.70
2023-07-19T10:38:44.107Z,5.20
2023-07-19T10:41:13.669Z,5.47
2023-07-19T10:46:13.821Z,4.73
2023-07-19T10:48:43.564Z,6.23
2023-07-19T10:51:13.240Z,5.47
2023-07-19T10:53:46.097Z,7.83
2023-07-19T10:56:15.377Z,5.70
2023-07-19T10:58:43.676Z,5.10
2023-07-19T11:01:11.813Z,5.47
2023-07-19T11:03:43.699Z,5.85
2023-07-19T11:06:13.351Z,6.20
2023-07-19T11:08:41.391Z,5.90
2023-07-19T11:11:11.884Z,5.45
2023-07-19T11:13:39.914Z,6.10
2023-07-19T11:16:08.118Z,6.07
2023-07-19T11:18:39.173Z,5.88
2023-07-19T11:21:09.195Z,5.93
2023-07-19T11:23:42.930Z,5.85
2023-07-19T11:26:13.196Z,5.43
2023-07-19T11:28:45.642Z,5.53
2023-07-19T11:31:29.099Z,5.82
2023-07-19T11:34:01.603Z,6.30
2023-07-19T11:36:30.314Z,5.05
2023-07-19T11:39:00.217Z,4.80
2023-07-19T11:41:31.290Z,5.43
2023-07-19T11:43:59.294Z,7.40
2023-07-19T11:46:27.354Z,6.10
2023-07-19T11:48:55.360Z,5.00
2023-07-19T11:51:23.678Z,5.28
2023-07-19T11:53:51.873Z,5.97
2023-07-19T11:56:21.168Z,6.60
2023-07-19T11:58:49.318Z,5.72
2023-07-19T12:01:20.348Z,6.88
2023-07-19T12:03:48.680Z,5.70
2023-07-19T12:06:16.739Z,6.60
2023-07-19T12:08:45.339Z,6.10
2023-07-19T12:11:14.039Z,7.38
2023-07-19T12:13:43.357Z,6.00
2023-07-19T12:16:11.321Z,5.25
2023-07-19T12:18:40.200Z,6.82
2023-07-19T12:21:08.212Z,5.38
2023-07-19T12:23:40.710Z,6.47
2023-07-19T12:26:10.156Z,6.15
2023-07-19T12:28:38.690Z,6.45
2023-07-19T12:31:10.097Z,5.47
2023-07-19T12:33:40.387Z,5.22
2023-07-19T12:36:10.195Z,5.28
2023-07-19T12:38:38.387Z,6.63
2023-07-19T12:41:06.667Z,6.13
2023-07-19T12:43:34.681Z,5.40
2023-07-19T12:46:03.690Z,6.55
2023-07-19T12:48:35.113Z,6.05
2023-07-19T12:51:05.275Z,6.80
2023-07-19T12:53:34.230Z,5.72
2023-07-19T12:56:03.954Z,7.30
2023-07-19T12:58:32.586Z,5.70
2023-07-19T13:01:00.698Z,5.67
2023-07-19T13:03:29.908Z,6.10
2023-07-19T13:05:59.466Z,5.70
2023-07-19T13:08:28.447Z,5.05
2023-07-19T13:10:56.719Z,5.57
2023-07-19T13:13:24.874Z,5.72
2023-07-19T13:15:52.890Z,6.15
2023-07-19T13:18:20.968Z,6.40
2023-07-19T13:20:49.184Z,5.07
2023-07-19T13:23:18.978Z,6.75
2023-07-19T13:25:47.061Z,5.70
2023-07-19T13:28:16.311Z,6.05
2023-07-19T13:30:44.516Z,6.00
2023-07-19T13:33:12.551Z,5.38
2023-07-19T13:38:11.550Z,5.90
2023-07-19T13:40:41.109Z,5.95
2023-07-19T13:43:11.638Z,5.05
2023-07-19T13:45:39.995Z,5.20
2023-07-19T13:48:09.505Z,6.15
2023-07-19T13:50:37.944Z,5.15
2023-07-19T13:53:06.030Z,5.78
2023-07-19T13:55:34.931Z,6.07
2023-07-19T13:58:05.276Z,6.65
2023-07-19T14:00:33.920Z,5.35
2023-07-19T14:03:02.119Z,5.13
2023-07-19T14:05:30.241Z,5.78
2023-07-19T14:07:59.773Z,6.60
2023-07-19T14:10:29.158Z,5.25
2023-07-19T14:13:00.229Z,6.30
2023-07-19T14:15:30.201Z,5.33
2023-07-19T14:17:58.431Z,5.90
2023-07-19T14:20:26.657Z,4.88
2023-07-19T14:22:54.966Z,5.70
2023-07-19T14:25:23.296Z,6.50
2023-07-19T14:27:51.308Z,5.68
2023-07-19T14:30:19.485Z,7.03
2023-07-19T14:32:48.828Z,5.38
2023-07-19T14:35:17.172Z,5.68
2023-07-19T14:37:45.770Z,5.22
2023-07-19T14:40:15.420Z,4.75
2023-07-19T14:42:44.587Z,5.55
2023-07-19T14:45:12.858Z,5.50
2023-07-19T14:47:40.978Z,4.80
2023-07-19T14:50:11.370Z,5.25
2023-07-19T14:52:42.586Z,4.95
2023-07-19T14:55:11.487Z,5.75
2023-07-19T14:57:39.595Z,5.60
2023-07-19T15:00:13.856Z,5.65
2023-07-19T15:02:42.460Z,5.87
2023-07-19T15:05:12.183Z,5.63
2023-07-19T15:07:44.268Z,5.22
2023-07-19T15:10:15.066Z,5.95
2023-07-19T15:12:44.399Z,5.45
2023-07-19T15:15:13.547Z,6.88
2023-07-19T15:17:42.504Z,6.07
2023-07-19T15:20:12.854Z,6.63
2023-07-19T15:22:42.109Z,6.40
2023-07-19T15:25:12.597Z,5.75
2023-07-19T15:27:41.829Z,6.60
2023-07-19T15:30:10.293Z,6.50
2023-07-19T15:32:41.313Z,5.80
2023-07-19T15:35:12.605Z,4.95
2023-07-19T15:37:40.715Z,5.30
2023-07-19T15:40:12.667Z,4.90
2023-07-19T15:42:40.753Z,5.03
2023-07-19T15:45:09.580Z,4.95
2023-07-19T15:47:38.010Z,6.05
2023-07-19T15:50:07.041Z,5.73
2023-07-19T15:52:39.283Z,6.97
2023-07-19T15:55:08.321Z,5.70
2023-07-19T15:57:36.557Z,6.33
2023-07-19T16:00:06.209Z,7.03
2023-07-19T16:02:34.964Z,5.47
2023-07-19T16:05:03.026Z,5.80
2023-07-19T16:07:31.159Z,5.90
2023-07-19T16:10:00.910Z,7.03
2023-07-19T16:12:29.143Z,5.90
2023-07-19T16:14:57.141Z,5.03
2023-07-19T16:17:25.381Z,5.23
2023-07-19T16:19:55.443Z,5.30
2023-07-19T16:22:25.701Z,5.63
2023-07-19T16:24:53.942Z,5.93
2023-07-19T16:27:23.369Z,6.40
2023-07-19T16:29:51.404Z,6.10
2023-07-19T16:32:19.382Z,6.43
2023-07-19T16:34:50.856Z,5.20
2023-07-19T16:37:20.007Z,6.70
2023-07-19T16:39:47.969Z,6.60
2023-07-19T16:42:16.117Z,6.17
2023-07-19T16:44:45.443Z,6.73
2023-07-19T16:47:13.469Z,6.90
2023-07-19T16:49:41.517Z,5.13
2023-07-19T16:52:12.858Z,5.97
2023-07-19T16:54:41.893Z,6.57
2023-07-19T16:57:10.779Z,5.73
2023-07-19T16:59:38.852Z,4.37
2023-07-19T17:02:09.879Z,5.93
2023-07-19T17:04:37.851Z,5.37
2023-07-19T17:07:06.404Z,6.00
2023-07-19T17:09:34.367Z,5.67
2023-07-19T17:12:02.465Z,6.70
2023-07-19T17:14:30.582Z,5.80
2023-07-19T17:17:12.191Z,5.30
2023-07-19T17:19:42.934Z,5.47
2023-07-19T17:22:11.593Z,5.77
2023-07-19T17:24:39.765Z,5.17
2023-07-19T17:27:08.119Z,6.73
2023-07-19T17:29:36.293Z,5.47
2023-07-19T17:32:04.642Z,5.93
2023-07-19T17:34:32.847Z,6.50
2023-07-19T17:37:02.488Z,5.17
2023-07-19T17:39:30.634Z,4.97
2023-07-19T17:41:58.898Z,5.10
2023-07-19T17:44:26.925Z,5.43
2023-07-19T17:46:55.413Z,6.53
2023-07-19T17:49:24.344Z,6.27
2023-07-19T17:51:53.286Z,5.40
2023-07-19T17:54:22.864Z,5.97
2023-07-19T17:56:51.036Z,5.23
2023-07-19T17:59:19.298Z,5.40
2023-07-19T18:01:47.831Z,5.37
2023-07-19T18:04:16.031Z,6.10
2023-07-19T18:06:44.142Z,5.03
2023-07-19T18:09:12.301Z,5.83
2023-07-19T18:11:41.840Z,5.47
2023-07-19T18:14:09.899Z,5.23
2023-07-19T18:16:38.810Z,5.57
2023-07-19T18:19:07.443Z,5.63
2023-07-19T18:21:35.495Z,5.10
2023-07-19T18:24:03.653Z,5.23
2023-07-19T18:26:31.822Z,4.37
2023-07-19T18:29:01.483Z,4.97
2023-07-19T18:31:30.998Z,5.27
2023-07-19T18:33:59.201Z,5.40
2023-07-19T18:36:27.251Z,5.33
2023-07-19T18:38:55.931Z,4.40
2023-07-19T18:41:24.852Z,5.77
2023-07-19T18:43:52.973Z,6.70
2023-07-19T18:46:22.684Z,4.50
2023-07-19T18:48:50.985Z,6.97
2023-07-19T18:51:19.567Z,7.93
2023-07-19T18:53:48.846Z,5.90
2023-07-19T18:56:23.691Z,1.90
2023-07-19T18:58:52.126Z,2.30
2023-07-19T19:01:20.629Z,2.67
2023-07-19T19:03:50.847Z,3.30
2023-07-19T19:06:19.362Z,2.43
2023-07-19T19:08:47.546Z,2.53
2023-07-19T19:11:15.813Z,2.60
2023-07-19T19:13:43.756Z,2.27
2023-07-19T19:16:11.754Z,1.90
2023-07-19T19:18:39.853Z,2.70
2023-07-19T19:21:09.243Z,2.40
2023-07-19T19:23:40.254Z,2.60
2023-07-19T19:26:08.516Z,2.53
2023-07-19T19:28:39.761Z,2.07
2023-07-19T19:31:08.475Z,2.30
2023-07-19T19:33:36.496Z,2.10
2023-07-19T19:36:05.056Z,1.90
2023-07-19T19:38:34.765Z,2.43
2023-07-19T19:41:03.290Z,2.37
2023-07-19T19:43:31.400Z,2.20
2023-07-19T19:46:01.123Z,3.50
2023-07-19T19:48:29.266Z,3.57
2023-07-19T19:50:57.287Z,3.20
2023-07-19T19:53:26.990Z,4.00
2023-07-19T19:56:17.765Z,3.00
2023-07-19T19:58:47.358Z,2.00
2023-07-19T20:01:15.821Z,2.00
2023-07-19T20:03:43.852Z,2.50
2023-07-19T20:06:11.939Z,2.20
2023-07-19T20:08:42.496Z,3.03
2023-07-19T20:11:13.666Z,2.70
2023-07-19T20:13:42.678Z,2.93
2023-07-19T20:16:10.787Z,2.87
2023-07-19T20:21:09.904Z,2.43
2023-07-19T20:23:38.001Z,2.33
2023-07-19T20:26:14.196Z,2.40
2023-07-19T20:28:47.988Z,2.20
2023-07-19T20:34:33.800Z,2.70
2023-07-19T20:41:37.880Z,2.93
2023-07-19T20:44:07.458Z,2.73
2023-07-19T20:49:06.797Z,2.13
2023-07-19T20:51:35.450Z,2.53
2023-07-19T20:54:05.079Z,2.50
2023-07-19T20:56:33.150Z,3.00
2023-07-19T20:59:01.217Z,2.23
2023-07-19T21:01:30.694Z,2.10
2023-07-19T21:03:59.044Z,2.07
2023-07-19T21:06:27.298Z,2.40
2023-07-19T21:08:55.401Z,2.20
2023-07-19T21:11:23.883Z,2.07
2023-07-19T21:13:52.206Z,2.57
2023-07-19T21:16:20.229Z,2.40
2023-07-19T21:18:49.676Z,1.67
2023-07-19T21:21:17.722Z,2.00
2023-07-19T21:23:45.721Z,2.20
2023-07-19T21:26:15.500Z,1.60
2023-07-19T21:28:43.770Z,1.97
2023-07-19T21:31:11.968Z,2.17
2023-07-19T21:33:40.044Z,1.70
2023-07-19T21:36:09.482Z,1.80
2023-07-19T21:38:37.538Z,2.53
2023-07-19T21:41:05.496Z,2.30
2023-07-19T21:43:35.496Z,2.20
2023-07-19T21:46:05.301Z,2.47
2023-07-19T21:48:33.562Z,2.37
2023-07-19T21:51:01.612Z,2.10
2023-07-19T21:53:31.196Z,2.60
2023-07-19T21:55:59.204Z,2.27
2023-07-19T21:58:28.137Z,1.80
2023-07-19T22:00:56.824Z,1.73
2023-07-19T22:03:24.915Z,1.90
2023-07-19T22:05:52.974Z,1.93
2023-07-19T22:08:23.269Z,2.60
2023-07-19T22:10:52.814Z,2.07
2023-07-19T22:13:20.806Z,2.47
2023-07-19T22:15:48.777Z,1.77
2023-07-19T22:18:19.877Z,2.30
2023-07-19T22:20:49.149Z,1.93
2023-07-19T22:23:17.497Z,1.90
2023-07-19T22:25:46.200Z,2.27
2023-07-19T22:28:15.904Z,1.90
2023-07-19T22:30:45.014Z,1.43
2023-07-19T22:33:13.440Z,1.70
2023-07-19T22:35:41.721Z,1.80
2023-07-19T22:38:10.245Z,1.57
2023-07-19T22:40:39.419Z,1.77
2023-07-19T22:43:07.587Z,2.20
2023-07-19T22:45:36.970Z,1.77
2023-07-19T22:48:05.413Z,1.90
2023-07-19T22:50:33.413Z,2.43
2023-07-19T22:53:01.459Z,1.83
2023-07-19T22:55:29.430Z,2.03
2023-07-19T22:57:57.492Z,1.80
2023-07-19T23:00:25.911Z,2.03
2023-07-19T23:02:56.121Z,1.90
2023-07-19T23:05:24.235Z,2.23
2023-07-19T23:07:52.659Z,1.90
2023-07-19T23:10:20.853Z,2.50
2023-07-19T23:12:51.778Z,2.00
2023-07-19T23:15:20.066Z,1.93
2023-07-19T23:17:48.125Z,1.60
2023-07-19T23:20:17.594Z,2.43
2023-07-19T23:22:45.703Z,2.30
2023-07-19T23:25:14.453Z,2.60
2023-07-19T23:27:43.260Z,2.30
2023-07-19T23:30:12.291Z,2.40
2023-07-19T23:32:40.394Z,1.93
2023-07-19T23:35:09.406Z,2.20
2023-07-19T23:37:38.755Z,1.97
2023-07-19T23:40:10.052Z,2.53
2023-07-19T23:42:38.069Z,1.73
2023-07-19T23:45:07.412Z,2.33
2023-07-19T23:47:36.938Z,2.37
2023-07-19T23:50:05.262Z,1.77
2023-07-19T23:52:33.242Z,2.40
2023-07-19T23:55:04.012Z,2.00
2023-07-19T23:57:32.089Z,2.00
